createdAt,value
2024-02-17T00:00:38.823Z,10.19
2024-02-17T00:03:09.763Z,10.31
2024-02-17T00:05:39.017Z,10.30
2024-02-17T00:08:08.586Z,10.31
2024-02-17T00:10:37.901Z,10.34
2024-02-17T00:13:07.214Z,10.45
2024-02-17T00:15:36.502Z,10.53
2024-02-17T00:18:06.985Z,10.46
2024-02-17T00:20:36.531Z,10.53
2024-02-17T00:23:06.763Z,10.53
2024-02-17T00:25:36.049Z,10.52
2024-02-17T00:28:05.465Z,10.42
2024-02-17T00:30:36.615Z,10.59
2024-02-17T00:33:06.802Z,10.59
2024-02-17T00:35:36.196Z,10.47
2024-02-17T00:38:06.086Z,10.47
2024-02-17T00:40:35.443Z,10.66
2024-02-17T00:43:04.938Z,10.60
2024-02-17T00:45:34.312Z,10.52
2024-02-17T00:48:03.783Z,10.52
2024-02-17T00:50:33.106Z,10.66
2024-02-17T00:53:02.436Z,10.67
2024-02-17T00:55:31.753Z,10.64
2024-02-17T00:58:02.431Z,10.74
2024-02-17T01:00:32.153Z,10.77
2024-02-17T01:03:01.927Z,10.70
2024-02-17T01:05:31.264Z,10.63
2024-02-17T01:08:00.639Z,10.68
2024-02-17T01:10:29.920Z,10.63
2024-02-17T01:12:59.328Z,10.59
2024-02-17T01:15:29.081Z,10.63
2024-02-17T01:17:58.593Z,10.69
2024-02-17T01:20:27.953Z,10.60
2024-02-17T01:22:57.216Z,10.60
2024-02-17T01:25:26.688Z,10.66
2024-02-17T01:27:55.967Z,10.73
2024-02-17T01:30:25.312Z,10.73
2024-02-17T01:32:54.650Z,10.64
2024-02-17T01:35:24.059Z,10.67
2024-02-17T01:37:53.782Z,10.61
2024-02-17T01:40:23.755Z,10.59
2024-02-17T01:42:53.077Z,10.64
2024-02-17T01:45:22.718Z,10.64
2024-02-17T01:47:52.183Z,10.58
2024-02-17T01:50:21.665Z,10.67
2024-02-17T01:52:50.986Z,10.70
2024-02-17T01:55:21.060Z,10.75
2024-02-17T01:57:50.849Z,10.61
2024-02-17T02:00:21.056Z,10.73
2024-02-17T02:02:51.269Z,10.64
2024-02-17T02:05:20.676Z,10.69
2024-02-17T02:07:50.685Z,10.66
2024-02-17T02:10:19.999Z,10.66
2024-02-17T02:12:49.329Z,10.56
2024-02-17T02:15:18.803Z,10.52
2024-02-17T02:17:48.249Z,10.52
2024-02-17T02:20:19.052Z,10.58
2024-02-17T02:22:48.924Z,10.56
2024-02-17T02:25:26.342Z,10.58
2024-02-17T02:27:56.696Z,10.52
2024-02-17T02:30:26.587Z,10.56
2024-02-17T02:32:59.834Z,10.66
2024-02-17T02:35:29.295Z,10.51
2024-02-17T02:37:58.595Z,10.60
2024-02-17T02:40:27.875Z,10.56
2024-02-17T02:42:58.437Z,10.48
2024-02-17T02:45:27.881Z,10.48
2024-02-17T02:47:57.246Z,10.57
2024-02-17T02:50:26.548Z,10.53
2024-02-17T02:52:55.883Z,10.62
2024-02-17T02:55:25.212Z,10.60
2024-02-17T02:57:54.567Z,10.57
2024-02-17T03:00:24.035Z,10.55
2024-02-17T03:02:53.506Z,10.55
2024-02-17T03:05:22.939Z,10.57
2024-02-17T03:07:52.916Z,10.54
2024-02-17T03:10:22.203Z,10.47
2024-02-17T03:12:51.584Z,10.42
2024-02-17T03:15:20.974Z,10.48
2024-02-17T03:17:55.179Z,10.52
2024-02-17T03:20:24.762Z,10.48
2024-02-17T03:22:54.044Z,10.48
2024-02-17T03:25:23.393Z,10.56
2024-02-17T03:27:52.871Z,10.63
2024-02-17T03:30:22.194Z,10.49
2024-02-17T03:32:51.497Z,10.43
2024-02-17T03:35:20.877Z,10.55
2024-02-17T03:37:50.182Z,10.40
2024-02-17T03:40:21.260Z,10.54
2024-02-17T03:42:50.660Z,10.54
2024-02-17T03:45:20.137Z,10.51
2024-02-17T03:47:49.576Z,10.34
2024-02-17T03:50:19.246Z,10.48
2024-02-17T03:52:48.610Z,10.53
2024-02-17T03:55:17.981Z,10.40
2024-02-17T03:57:47.309Z,10.39
2024-02-17T04:00:16.995Z,10.39
2024-02-17T04:02:46.287Z,10.39
2024-02-17T04:05:16.108Z,10.41
2024-02-17T04:07:45.710Z,10.41
2024-02-17T04:10:16.772Z,10.36
2024-02-17T04:12:46.345Z,10.49
2024-02-17T04:15:15.771Z,10.57
2024-02-17T04:17:45.432Z,10.39
2024-02-17T04:20:14.957Z,10.52
2024-02-17T04:22:44.344Z,10.56
2024-02-17T04:25:16.587Z,10.56
2024-02-17T04:27:46.054Z,10.66
2024-02-17T04:30:15.744Z,10.51
2024-02-17T04:32:45.062Z,10.51
2024-02-17T04:35:14.554Z,10.56
2024-02-17T04:37:45.159Z,10.42
2024-02-17T04:40:14.573Z,10.43
2024-02-17T04:42:44.054Z,10.45
2024-02-17T04:45:13.558Z,10.47
2024-02-17T04:47:43.006Z,10.47
2024-02-17T04:50:15.701Z,10.50
2024-02-17T04:52:45.073Z,10.49
2024-02-17T04:55:14.587Z,10.35
2024-02-17T04:57:44.085Z,10.35
2024-02-17T05:00:13.948Z,10.42
2024-02-17T05:02:43.256Z,10.43
2024-02-17T05:05:13.184Z,10.43
2024-02-17T05:07:42.483Z,10.46
2024-02-17T05:10:11.937Z,10.22
2024-02-17T05:12:41.448Z,10.43
2024-02-17T05:15:11.358Z,10.43
2024-02-17T05:17:40.722Z,10.43
2024-02-17T05:20:10.414Z,10.44
2024-02-17T05:22:40.211Z,10.44
2024-02-17T05:25:09.801Z,10.40
2024-02-17T05:27:39.500Z,10.40
2024-02-17T05:30:09.791Z,10.40
2024-02-17T05:32:39.238Z,10.27
2024-02-17T05:35:09.272Z,10.34
2024-02-17T05:37:38.718Z,10.30
2024-02-17T05:40:09.045Z,10.39
2024-02-17T05:42:39.318Z,10.57
2024-02-17T05:45:09.298Z,10.46
2024-02-17T05:47:38.654Z,10.52
2024-02-17T05:50:08.791Z,10.49
2024-02-17T05:52:39.727Z,10.32
2024-02-17T05:55:09.383Z,10.26
2024-02-17T05:57:38.718Z,10.40
2024-02-17T06:00:09.772Z,10.39
2024-02-17T06:02:39.196Z,10.39
2024-02-17T06:05:08.995Z,10.40
2024-02-17T06:07:38.698Z,10.43
2024-02-17T06:10:08.632Z,10.41
2024-02-17T06:12:37.930Z,10.43
2024-02-17T06:15:09.328Z,10.43
2024-02-17T06:17:41.813Z,10.37
2024-02-17T06:20:30.338Z,10.26
2024-02-17T06:23:00.379Z,10.37
2024-02-17T06:25:29.804Z,10.38
2024-02-17T06:27:59.196Z,10.23
2024-02-17T06:30:28.719Z,10.23
2024-02-17T06:32:58.123Z,10.31
2024-02-17T06:35:30.386Z,10.30
2024-02-17T06:37:59.812Z,10.19
2024-02-17T06:40:29.190Z,10.19
2024-02-17T06:42:58.468Z,10.16
2024-02-17T06:45:27.807Z,10.28
2024-02-17T06:47:57.095Z,10.23
2024-02-17T06:50:26.503Z,10.17
2024-02-17T06:52:55.811Z,10.17
2024-02-17T06:55:25.091Z,10.12
2024-02-17T06:57:55.045Z,10.19
2024-02-17T07:00:25.068Z,10.19
2024-02-17T07:02:54.545Z,10.15
2024-02-17T07:05:23.791Z,10.11
2024-02-17T07:07:53.132Z,10.05
2024-02-17T07:10:22.517Z,10.08
2024-02-17T07:12:51.909Z,10.02
2024-02-17T07:15:21.553Z,10.05
2024-02-17T07:17:50.956Z,10.09
2024-02-17T07:20:20.291Z,10.16
2024-02-17T07:22:49.616Z,10.05
2024-02-17T07:25:18.878Z,10.16
2024-02-17T07:27:49.560Z,10.08
2024-02-17T07:30:19.908Z,10.20
2024-02-17T07:32:50.154Z,10.24
2024-02-17T07:35:22.216Z,10.17
2024-02-17T07:37:51.044Z,10.19
2024-02-17T07:40:20.293Z,10.23
2024-02-17T07:42:49.730Z,10.31
2024-02-17T07:45:19.652Z,10.28
2024-02-17T07:47:49.005Z,10.25
2024-02-17T07:50:18.527Z,10.21
2024-02-17T07:52:47.868Z,10.45
2024-02-17T07:55:17.315Z,10.28
2024-02-17T07:57:46.622Z,10.12
2024-02-17T08:00:16.795Z,10.19
2024-02-17T08:02:47.826Z,10.19
2024-02-17T08:05:17.423Z,10.30
2024-02-17T08:07:46.791Z,10.28
2024-02-17T08:10:16.081Z,10.28
2024-02-17T08:12:45.430Z,10.30
2024-02-17T08:15:14.920Z,10.34
2024-02-17T08:17:44.270Z,10.34
2024-02-17T08:20:14.061Z,10.29
2024-02-17T08:22:43.543Z,10.46
2024-02-17T08:25:12.921Z,10.41
2024-02-17T08:27:43.953Z,10.41
2024-02-17T08:30:13.689Z,10.39
2024-02-17T08:32:43.193Z,10.46
2024-02-17T08:35:12.839Z,10.61
2024-02-17T08:37:42.239Z,10.84
2024-02-17T08:40:12.444Z,10.85
2024-02-17T08:42:42.506Z,10.89
2024-02-17T08:45:12.265Z,10.77
2024-02-17T08:47:41.777Z,10.68
2024-02-17T08:50:11.246Z,10.97
2024-02-17T08:52:40.619Z,10.96
2024-02-17T08:55:10.188Z,10.87
2024-02-17T08:57:40.227Z,10.90
2024-02-17T09:00:10.172Z,10.90
2024-02-17T09:02:39.955Z,10.96
2024-02-17T09:05:09.442Z,10.96
2024-02-17T09:07:38.902Z,10.90
2024-02-17T09:10:09.840Z,10.94
2024-02-17T09:12:39.201Z,10.94
2024-02-17T09:15:09.501Z,10.89
2024-02-17T09:17:40.756Z,10.96
2024-02-17T09:20:11.067Z,11.13
2024-02-17T09:22:40.574Z,10.98
2024-02-17T09:25:10.001Z,11.03
2024-02-17T09:27:39.345Z,11.15
2024-02-17T09:30:09.200Z,11.18
2024-02-17T09:32:38.775Z,11.21
2024-02-17T09:35:08.551Z,11.35
2024-02-17T09:37:39.556Z,11.32
2024-02-17T09:40:10.972Z,11.40
2024-02-17T09:42:40.527Z,11.40
2024-02-17T09:45:10.284Z,11.43
2024-02-17T09:47:39.753Z,11.61
2024-02-17T09:50:10.099Z,11.61
2024-02-17T09:52:40.220Z,11.91
2024-02-17T09:55:10.065Z,11.91
2024-02-17T09:57:47.431Z,12.28
2024-02-17T10:00:11.995Z,12.21
2024-02-17T10:02:41.871Z,12.28
2024-02-17T10:05:11.428Z,12.42
2024-02-17T10:07:56.802Z,12.22
2024-02-17T10:10:26.748Z,11.88
2024-02-17T10:13:02.513Z,12.22
2024-02-17T10:15:33.348Z,12.51
2024-02-17T10:18:02.759Z,12.33
2024-02-17T10:20:32.430Z,12.70
2024-02-17T10:23:01.868Z,12.19
2024-02-17T10:25:31.696Z,12.19
2024-02-17T10:28:01.245Z,12.09
2024-02-17T10:30:30.792Z,12.28
2024-02-17T10:33:00.252Z,12.43
2024-02-17T10:35:30.147Z,12.40
2024-02-17T10:37:59.587Z,12.40
2024-02-17T10:40:32.035Z,12.19
2024-02-17T10:43:01.468Z,12.69
2024-02-17T10:45:31.058Z,12.69
2024-02-17T10:48:03.684Z,12.37
2024-02-17T10:50:35.778Z,12.36
2024-02-17T10:53:19.908Z,12.36
2024-02-17T10:55:55.286Z,12.63
2024-02-17T10:58:24.759Z,12.63
2024-02-17T11:00:54.216Z,12.21
2024-02-17T11:03:34.824Z,12.50
2024-02-17T11:06:06.569Z,12.33
2024-02-17T11:08:36.487Z,12.37
2024-02-17T11:11:25.950Z,12.37
2024-02-17T11:13:57.101Z,12.71
2024-02-17T11:16:26.929Z,12.92
2024-02-17T11:18:57.234Z,12.62
2024-02-17T11:21:30.327Z,12.73
2024-02-17T11:24:01.544Z,12.75
2024-02-17T11:26:40.543Z,12.58
2024-02-17T11:29:06.975Z,12.76
2024-02-17T11:31:36.313Z,13.04
2024-02-17T11:34:06.457Z,12.93
2024-02-17T11:36:36.478Z,13.14
2024-02-17T11:39:06.042Z,13.45
2024-02-17T11:41:35.421Z,13.25
2024-02-17T11:44:05.011Z,13.15
2024-02-17T11:46:35.327Z,13.15
2024-02-17T11:49:12.098Z,13.65
2024-02-17T11:51:50.481Z,13.65
2024-02-17T11:54:21.200Z,13.53
2024-02-17T11:56:52.766Z,13.65
2024-02-17T11:59:22.072Z,13.77
2024-02-17T12:01:52.582Z,13.65
2024-02-17T12:04:23.732Z,13.46
2024-02-17T12:06:53.248Z,13.46
2024-02-17T12:09:22.591Z,13.28
2024-02-17T12:11:51.903Z,13.08
2024-02-17T12:14:22.833Z,13.33
2024-02-17T12:16:52.116Z,13.37
2024-02-17T12:19:21.537Z,13.26
2024-02-17T12:21:50.929Z,13.30
2024-02-17T12:24:20.509Z,12.89
2024-02-17T12:26:52.643Z,13.62
2024-02-17T12:29:21.912Z,13.26
2024-02-17T12:31:56.827Z,13.26
2024-02-17T12:34:28.487Z,13.75
2024-02-17T12:36:58.838Z,13.80
2024-02-17T12:39:28.501Z,13.92
2024-02-17T12:42:04.088Z,13.86
2024-02-17T12:44:33.625Z,13.49
2024-02-17T12:47:04.587Z,13.49
2024-02-17T12:49:34.129Z,14.16
2024-02-17T12:52:04.453Z,14.16
2024-02-17T12:54:33.906Z,14.66
2024-02-17T12:57:03.295Z,14.81
2024-02-17T12:59:34.321Z,14.99
2024-02-17T13:02:03.726Z,14.77
2024-02-17T13:04:33.093Z,14.34
2024-02-17T13:07:02.543Z,14.33
2024-02-17T13:09:32.448Z,14.19
2024-02-17T13:12:01.755Z,13.67
2024-02-17T13:14:31.040Z,13.67
2024-02-17T13:17:00.674Z,13.61
2024-02-17T13:19:31.831Z,13.60
2024-02-17T13:22:01.300Z,13.49
2024-02-17T13:24:30.776Z,13.60
2024-02-17T13:27:00.169Z,13.60
2024-02-17T13:29:29.544Z,13.68
2024-02-17T13:31:58.847Z,13.61
2024-02-17T13:34:29.990Z,13.49
2024-02-17T13:37:02.303Z,13.54
2024-02-17T13:39:30.263Z,13.42
2024-02-17T13:42:00.116Z,13.42
2024-02-17T13:44:29.607Z,13.34
2024-02-17T13:46:58.896Z,13.34
2024-02-17T13:49:30.487Z,13.66
2024-02-17T13:52:00.112Z,13.66
2024-02-17T13:54:29.643Z,13.85
2024-02-17T13:57:01.409Z,13.80
2024-02-17T13:59:30.709Z,13.80
2024-02-17T14:02:00.394Z,13.89
2024-02-17T14:04:29.837Z,13.63
2024-02-17T14:06:59.213Z,13.55
2024-02-17T14:09:28.621Z,13.61
2024-02-17T14:11:58.060Z,13.55
2024-02-17T14:14:27.424Z,13.58
2024-02-17T14:16:58.919Z,14.13
2024-02-17T14:19:27.963Z,14.33
2024-02-17T14:21:57.328Z,14.39
2024-02-17T14:24:31.234Z,13.90
2024-02-17T14:27:00.857Z,13.90
2024-02-17T14:29:32.300Z,14.18
2024-02-17T14:32:01.592Z,14.09
2024-02-17T14:34:30.974Z,13.49
2024-02-17T14:37:00.722Z,13.51
2024-02-17T14:39:30.843Z,13.77
2024-02-17T14:42:00.195Z,13.91
2024-02-17T14:44:30.772Z,14.16
2024-02-17T14:47:00.068Z,14.16
2024-02-17T14:49:29.373Z,14.54
2024-02-17T14:52:02.497Z,14.54
2024-02-17T14:54:32.001Z,14.41
2024-02-17T14:57:01.446Z,14.26
2024-02-17T14:59:30.705Z,14.26
2024-02-17T15:01:59.990Z,13.95
2024-02-17T15:04:29.475Z,14.08
2024-02-17T15:07:00.129Z,14.08
2024-02-17T15:09:29.760Z,14.29
2024-02-17T15:12:00.162Z,14.02
2024-02-17T15:14:30.101Z,13.96
2024-02-17T15:16:59.535Z,14.02
2024-02-17T15:19:29.290Z,14.03
2024-02-17T15:21:58.732Z,14.09
2024-02-17T15:24:28.143Z,14.06
2024-02-17T15:26:57.490Z,14.26
2024-02-17T15:29:26.826Z,14.28
2024-02-17T15:31:56.087Z,14.37
2024-02-17T15:34:25.575Z,14.12
2024-02-17T15:36:55.002Z,14.52
2024-02-17T15:39:24.531Z,14.22
2024-02-17T15:41:53.862Z,14.10
2024-02-17T15:44:23.247Z,14.10
2024-02-17T15:46:53.403Z,14.30
2024-02-17T15:49:23.107Z,14.23
2024-02-17T15:51:52.969Z,14.43
2024-02-17T15:54:23.481Z,14.34
2024-02-17T15:56:52.877Z,14.79
2024-02-17T15:59:22.938Z,14.79
2024-02-17T16:01:52.428Z,14.51
2024-02-17T16:04:22.024Z,14.51
2024-02-17T16:06:51.484Z,14.25
2024-02-17T16:09:24.974Z,14.01
2024-02-17T16:11:54.310Z,13.90
2024-02-17T16:14:23.700Z,13.90
2024-02-17T16:16:53.804Z,14.03
2024-02-17T16:19:23.249Z,14.01
2024-02-17T16:21:52.726Z,13.91
2024-02-17T16:24:22.007Z,14.05
2024-02-17T16:26:51.333Z,13.95
2024-02-17T16:29:20.637Z,13.95
2024-02-17T16:31:49.895Z,13.79
2024-02-17T16:34:19.426Z,13.79
2024-02-17T16:36:48.896Z,13.69
2024-02-17T16:39:18.590Z,13.71
2024-02-17T16:41:54.258Z,13.51
2024-02-17T16:44:26.558Z,13.27
2024-02-17T16:46:56.120Z,13.27
2024-02-17T16:49:25.533Z,13.20
2024-02-17T16:51:57.692Z,13.20
2024-02-17T16:54:28.884Z,13.27
2024-02-17T16:56:58.227Z,13.27
2024-02-17T16:59:27.513Z,13.27
2024-02-17T17:01:56.829Z,13.33
2024-02-17T17:04:27.901Z,13.16
2024-02-17T17:06:57.288Z,13.25
2024-02-17T17:09:26.832Z,13.33
2024-02-17T17:11:56.143Z,13.41
2024-02-17T17:14:25.444Z,13.38
2024-02-17T17:16:54.720Z,13.26
2024-02-17T17:19:24.131Z,13.26
2024-02-17T17:21:53.735Z,13.22
2024-02-17T17:24:24.754Z,13.22
2024-02-17T17:26:57.514Z,13.25
2024-02-17T17:29:26.919Z,13.28
2024-02-17T17:31:56.221Z,13.19
2024-02-17T17:34:27.267Z,13.28
2024-02-17T17:36:56.617Z,13.28
2024-02-17T17:39:26.007Z,13.26
2024-02-17T17:41:55.263Z,13.26
2024-02-17T17:44:24.549Z,13.31
2024-02-17T17:46:55.599Z,13.29
2024-02-17T17:49:25.032Z,13.31
2024-02-17T17:51:54.556Z,13.31
2024-02-17T17:54:24.015Z,13.33
2024-02-17T17:56:53.384Z,13.42
2024-02-17T17:59:22.631Z,13.41
2024-02-17T18:01:52.082Z,13.41
2024-02-17T18:04:21.588Z,13.35
2024-02-17T18:06:51.091Z,13.13
2024-02-17T18:09:20.441Z,13.29
2024-02-17T18:11:49.999Z,13.18
2024-02-17T18:14:19.486Z,13.18
2024-02-17T18:19:36.951Z,13.12
2024-02-17T18:22:07.053Z,13.23
2024-02-17T18:24:36.493Z,13.17
2024-02-17T18:27:05.922Z,13.18
2024-02-17T18:29:35.284Z,13.25
2024-02-17T18:32:04.835Z,13.26
2024-02-17T18:34:34.812Z,13.16
2024-02-17T18:37:05.594Z,13.09
2024-02-17T18:39:37.818Z,13.05
2024-02-17T18:42:08.003Z,13.08
2024-02-17T18:44:37.289Z,13.04
2024-02-17T18:47:06.684Z,12.99
2024-02-17T18:49:36.164Z,13.16
2024-02-17T18:52:06.076Z,12.98
2024-02-17T18:54:35.460Z,12.90
2024-02-17T18:57:04.959Z,12.90
2024-02-17T18:59:34.277Z,12.81
2024-02-17T19:02:03.642Z,12.69
2024-02-17T19:04:33.044Z,12.66
2024-02-17T19:07:03.725Z,12.66
2024-02-17T19:09:33.261Z,12.62
2024-02-17T19:12:02.685Z,12.65
2024-02-17T19:14:32.027Z,12.76
2024-02-17T19:17:01.583Z,12.79
2024-02-17T19:19:30.868Z,12.78
2024-02-17T19:22:00.732Z,12.59
2024-02-17T19:24:31.058Z,12.43
2024-02-17T19:27:01.131Z,12.43
2024-02-17T19:29:30.392Z,12.59
2024-02-17T19:31:59.753Z,12.57
2024-02-17T19:34:29.167Z,12.39
2024-02-17T19:36:59.030Z,12.32
2024-02-17T19:39:28.874Z,12.42
2024-02-17T19:41:58.220Z,12.47
2024-02-17T19:44:27.584Z,12.48
2024-02-17T19:46:56.913Z,12.50
2024-02-17T19:49:26.352Z,12.46
2024-02-17T19:51:56.041Z,12.46
2024-02-17T19:54:25.507Z,12.38
2024-02-17T19:56:54.873Z,12.49
2024-02-17T19:59:24.372Z,12.62
2024-02-17T20:01:55.815Z,12.75
2024-02-17T20:04:25.520Z,12.61
2024-02-17T20:06:55.040Z,12.52
2024-02-17T20:09:24.450Z,12.52
2024-02-17T20:11:54.069Z,12.61
2024-02-17T20:14:23.390Z,12.56
2024-02-17T20:16:54.376Z,12.56
2024-02-17T20:19:26.468Z,12.58
2024-02-17T20:21:59.323Z,12.54
2024-02-17T20:24:28.720Z,12.56
2024-02-17T20:26:58.050Z,12.56
2024-02-17T20:29:27.481Z,12.48
2024-02-17T20:31:57.045Z,12.52
2024-02-17T20:34:26.568Z,12.37
2024-02-17T20:36:57.801Z,12.58
2024-02-17T20:39:27.813Z,12.58
2024-02-17T20:41:57.140Z,12.58
2024-02-17T20:44:26.512Z,12.53
2024-02-17T20:46:56.838Z,12.57
2024-02-17T20:49:26.159Z,12.62
2024-02-17T20:51:55.633Z,12.62
2024-02-17T20:54:25.577Z,12.68
2024-02-17T20:56:57.816Z,12.77
2024-02-17T20:59:27.119Z,12.70
2024-02-17T21:01:56.472Z,12.62
2024-02-17T21:04:27.561Z,12.62
2024-02-17T21:06:56.975Z,12.68
2024-02-17T21:09:26.421Z,12.81
2024-02-17T21:11:55.774Z,12.65
2024-02-17T21:14:25.146Z,12.76
2024-02-17T21:16:56.159Z,12.76
2024-02-17T21:19:27.212Z,12.62
2024-02-17T21:21:57.088Z,12.70
2024-02-17T21:24:26.390Z,12.79
2024-02-17T21:26:55.859Z,12.61
2024-02-17T21:29:25.134Z,12.63
2024-02-17T21:31:55.189Z,12.60
2024-02-17T21:34:25.098Z,12.65
2024-02-17T21:36:54.638Z,12.53
2024-02-17T21:39:24.151Z,12.54
2024-02-17T21:41:54.567Z,12.54
2024-02-17T21:44:23.982Z,12.48
2024-02-17T21:46:53.267Z,12.56
2024-02-17T21:49:23.081Z,12.47
2024-02-17T21:51:52.526Z,12.52
2024-02-17T21:54:22.087Z,12.55
2024-02-17T21:56:51.693Z,12.56
2024-02-17T21:59:21.159Z,12.61
2024-02-17T22:01:58.208Z,12.48
2024-02-17T22:04:21.476Z,12.34
2024-02-17T22:06:50.820Z,12.50
2024-02-17T22:09:20.596Z,12.45
2024-02-17T22:11:50.194Z,12.45
2024-02-17T22:14:19.691Z,12.40
2024-02-17T22:16:49.199Z,12.35
2024-02-17T22:19:18.829Z,12.37
2024-02-17T22:21:48.214Z,12.37
2024-02-17T22:24:18.652Z,12.40
2024-02-17T22:26:48.082Z,12.37
2024-02-17T22:29:17.387Z,12.28
2024-02-17T22:31:46.660Z,12.25
2024-02-17T22:34:16.902Z,12.17
2024-02-17T22:36:46.387Z,12.30
2024-02-17T22:39:17.437Z,12.21
2024-02-17T22:41:46.739Z,12.20
2024-02-17T22:44:16.049Z,12.07
2024-02-17T22:46:45.335Z,12.16
2024-02-17T22:49:14.742Z,11.96
2024-02-17T22:51:44.148Z,12.02
2024-02-17T22:54:14.524Z,11.94
2024-02-17T22:57:11.227Z,11.93
2024-02-17T22:59:42.391Z,12.01
2024-02-17T23:02:13.221Z,11.94
2024-02-17T23:04:42.619Z,11.95
2024-02-17T23:07:12.121Z,11.76
2024-02-17T23:09:42.386Z,11.84
2024-02-17T23:12:11.754Z,11.84
2024-02-17T23:14:41.011Z,11.91
2024-02-17T23:17:10.297Z,11.93
2024-02-17T23:19:39.768Z,11.81
2024-02-17T23:22:09.135Z,11.94
2024-02-17T23:24:38.546Z,11.85
2024-02-17T23:27:08.097Z,11.82
2024-02-17T23:29:38.576Z,11.82
2024-02-17T23:32:08.083Z,11.89
2024-02-17T23:34:39.323Z,11.89
2024-02-17T23:37:08.835Z,11.87
2024-02-17T23:39:38.303Z,11.84
2024-02-17T23:42:07.674Z,11.82
2024-02-17T23:44:37.430Z,11.72
2024-02-17T23:47:06.782Z,11.79
2024-02-17T23:49:36.803Z,11.87
2024-02-17T23:52:07.477Z,11.80
2024-02-17T23:54:37.097Z,11.83
2024-02-17T23:57:09.937Z,11.83
2024-02-17T23:59:40.134Z,11.69
